Time;durP1;ratioP1;P1;durP2;ratioP2;P2;SDS_P1;SDS_P2;PMS_P1;PMS_P2;Temp;Humidity;BMP_temperature;BMP_pressure;BME280_temperature;BME280_humidity;BME280_pressure;Samples;Min_cycle;Max_cycle;Signal;HPM_P1;HPM_P2
2020/12/11 00:02:52;;;;;;;29.80;22.65;;;;;;;6.61;92.22;99758.22;5077139;28;20043;-81
2020/12/11 00:05:56;;;;;;;28.92;22.38;;;;;;;6.62;92.57;99763.41;5077113;28;20055;-80
2020/12/11 00:09:00;;;;;;;;;;;;;;;6.58;92.36;99764.66;5077505;28;20048;-81
2020/12/11 00:12:04;;;;;;;29.02;21.48;;;;;;;6.64;92.28;99764.13;5077038;28;19917;-81
2020/12/11 00:15:09;;;;;;;30.45;22.77;;;;;;;6.62;92.42;99760.75;5076883;28;20063;-81
2020/12/11 00:18:14;;;;;;;29.05;22.67;;;;;;;6.60;92.20;99762.69;5064791;28;20056;-81
2020/12/11 00:21:18;;;;;;;28.42;22.05;;;;;;;6.59;92.05;99768.16;5076238;28;20055;-80
2020/12/11 00:24:22;;;;;;;30.95;23.52;;;;;;;6.54;92.59;99768.53;5076839;28;20390;-80
2020/12/11 00:27:27;;;;;;;34.88;25.88;;;;;;;6.57;92.62;99770.94;5076629;28;20521;-80
2020/12/11 00:30:31;;;;;;;31.52;25.05;;;;;;;6.60;92.56;99778.69;5076626;28;20052;-80
2020/12/11 00:33:36;;;;;;;32.25;26.08;;;;;;;6.62;92.29;99774.09;5076447;28;20111;-79
2020/12/11 00:36:40;;;;;;;33.35;26.88;;;;;;;6.63;92.02;99772.28;5076754;28;20399;-80
2020/12/11 00:39:45;;;;;;;34.35;27.63;;;;;;;6.59;92.26;99777.03;5076353;28;20051;-79
2020/12/11 00:42:49;;;;;;;36.75;28.67;;;;;;;6.53;92.28;99773.03;5076378;28;20051;-79
2020/12/11 00:45:54;;;;;;;35.15;28.00;;;;;;;6.60;92.38;99778.69;5063553;28;20063;-79
2020/12/11 00:48:58;;;;;;;39.08;28.60;;;;;;;6.55;92.08;99773.75;5063944;28;20055;-80
2020/12/11 00:52:02;;;;;;;38.38;29.98;;;;;;;6.55;92.23;99776.41;5075929;28;20043;-80
2020/12/11 00:55:12;;;;;;;38.63;30.60;;;;;;;6.54;92.42;99768.53;5063854;28;20048;-79
2020/12/11 00:58:17;;;;;;;35.97;29.73;;;;;;;6.62;92.10;99779.41;5075406;28;20052;-81
2020/12/11 01:01:21;;;;;;;37.10;31.13;;;;;;;6.58;92.26;99775.31;5075970;28;20047;-81
2020/12/11 01:04:26;;;;;;;40.35;31.13;;;;;;;6.61;92.24;99776.88;5075961;28;20049;-81
2020/12/11 01:07:30;;;;;;;38.85;32.17;;;;;;;6.57;92.28;99766.47;5075467;28;20379;-80
2020/12/11 01:10:35;;;;;;;39.25;31.75;;;;;;;6.58;92.56;99764.66;5075854;28;20061;-79
2020/12/11 01:13:39;;;;;;;39.22;32.13;;;;;;;6.62;92.19;99766.09;5075730;28;20039;-78
2020/12/11 01:16:44;;;;;;;41.38;32.40;;;;;;;6.60;92.17;99770.69;5075721;28;20051;-80
2020/12/11 01:19:48;;;;;;;40.55;32.25;;;;;;;6.63;92.29;99773.13;5075964;28;20056;-80
2020/12/11 01:22:53;;;;;;;42.45;32.58;;;;;;;6.62;92.22;99766.09;5075906;28;20048;-80
2020/12/11 01:25:57;;;;;;;41.47;32.47;;;;;;;6.59;92.25;99762.84;5075184;28;20056;-80
2020/12/11 01:29:01;;;;;;;46.40;33.70;;;;;;;6.57;91.96;99758.47;5075559;28;20051;-80
2020/12/11 01:32:05;;;;;;;41.20;31.35;;;;;;;6.56;92.38;99750.59;5075420;28;20395;-81
2020/12/11 01:35:10;;;;;;;42.53;34.25;;;;;;;6.54;91.95;99758.69;5063063;28;20055;-81
2020/12/11 01:38:14;;;;;;;39.13;31.48;;;;;;;6.58;92.15;99759.31;5074674;28;20055;-81
2020/12/11 01:41:20;;;;;;;43.45;33.50;;;;;;;6.55;92.26;99762.22;5075306;28;20055;-80
2020/12/11 01:44:25;;;;;;;45.53;33.15;;;;;;;6.48;92.21;99761.88;5075207;28;20060;-80
2020/12/11 01:47:29;;;;;;;44.22;33.42;;;;;;;6.49;92.50;99766.22;5074581;28;20134;-80
2020/12/11 01:50:34;;;;;;;46.08;36.13;;;;;;;6.39;92.75;99751.94;5075115;28;20051;-80
2020/12/11 01:53:42;;;;;;;43.45;34.70;;;;;;;6.47;92.86;99767.31;5074860;28;20478;-81
2020/12/11 01:56:55;;;;;;;47.35;33.85;;;;;;;6.40;92.65;99772.31;5074620;28;20051;-81
2020/12/11 02:00:05;;;;;;;46.80;35.73;;;;;;;6.46;92.69;99760.31;5074951;28;20047;-80
2020/12/11 02:03:10;;;;;;;46.63;34.88;;;;;;;6.48;92.88;99764.53;5074846;28;20048;-80
2020/12/11 02:06:14;;;;;;;49.20;36.03;;;;;;;6.47;92.88;99746.00;5074561;28;20052;-80
2020/12/11 02:09:20;;;;;;;41.70;32.83;;;;;;;6.53;93.11;99750.84;5074676;28;20506;-81
2020/12/11 02:12:24;;;;;;;48.15;36.42;;;;;;;6.49;92.93;99750.22;5074647;28;20056;-80
2020/12/11 02:15:28;;;;;;;49.90;36.47;;;;;;;6.47;92.70;99740.66;5074060;28;20063;-81
2020/12/11 02:18:33;;;;;;;48.00;35.15;;;;;;;6.46;92.74;99729.19;5073924;28;20094;-81
2020/12/11 02:21:37;;;;;;;52.03;37.30;;;;;;;6.43;93.03;99736.56;5074517;28;20490;-80
2020/12/11 02:24:42;;;;;;;48.90;36.67;;;;;;;6.43;92.85;99744.56;5062174;28;20043;-80
2020/12/11 02:27:47;;;;;;;50.70;36.97;;;;;;;6.43;93.39;99736.56;5074431;28;20043;-80
2020/12/11 02:30:57;;;;;;;45.33;35.28;;;;;;;6.40;93.52;99723.47;5074259;28;20039;-81
2020/12/11 02:34:01;;;;;;;51.50;35.17;;;;;;;6.34;93.25;99724.84;5074185;28;20055;-80
2020/12/11 02:37:06;;;;;;;50.08;34.88;;;;;;;6.32;93.73;99723.25;5074215;28;20044;-80
2020/12/11 02:40:11;;;;;;;45.92;35.58;;;;;;;6.39;93.66;99732.47;5074403;28;20051;-81
2020/12/11 02:43:16;;;;;;;47.40;35.08;;;;;;;6.41;93.64;99736.69;5061839;28;20055;-81
2020/12/11 02:46:20;;;;;;;47.92;36.58;;;;;;;6.43;93.61;99728.56;5050414;28;20055;-81
2020/12/11 02:49:24;;;;;;;47.55;36.30;;;;;;;6.45;93.41;99729.28;5073842;28;20050;-81
2020/12/11 02:52:29;;;;;;;49.40;38.20;;;;;;;6.49;93.37;99736.06;5062033;28;20052;-81
2020/12/11 02:55:36;;;;;;;46.80;34.83;;;;;;;6.51;93.22;99728.78;5073993;28;20055;-81
2020/12/11 02:58:40;;;;;;;49.67;37.22;;;;;;;6.55;93.22;99740.91;5073690;28;20415;-81
2020/12/11 03:01:45;;;;;;;46.72;35.70;;;;;;;6.53;92.86;99740.19;5074231;28;20057;-80
2020/12/11 03:04:49;;;;;;;48.70;35.33;;;;;;;6.49;92.89;99728.09;5061423;28;20063;-80
2020/12/11 03:07:53;;;;;;;44.78;34.10;;;;;;;6.52;92.88;99736.66;5073929;28;20059;-79
2020/12/11 03:10:58;;;;;;;48.55;35.50;;;;;;;6.51;93.13;99718.13;5073301;28;20048;-79
2020/12/11 03:14:02;;;;;;;46.03;34.50;;;;;;;6.52;92.99;99722.47;5073987;28;20486;-80
2020/12/11 03:17:06;;;;;;;41.90;32.47;;;;;;;6.52;92.72;99722.47;5073859;28;20051;-80
2020/12/11 03:20:10;;;;;;;45.25;33.45;;;;;;;6.56;92.69;99726.59;5073775;28;20055;-81
2020/12/11 03:23:15;;;;;;;44.53;34.00;;;;;;;6.55;92.88;99727.56;5061443;28;20419;-81
2020/12/11 03:26:19;;;;;;;46.05;34.85;;;;;;;6.52;92.47;99715.34;5073830;28;20057;-81
2020/12/11 03:29:23;;;;;;;41.88;32.90;;;;;;;6.57;92.49;99728.28;5061000;28;20055;-79
2020/12/11 03:32:28;;;;;;;41.67;33.42;;;;;;;6.55;92.69;99715.09;5077581;28;20067;-78
2020/12/11 03:35:32;;;;;;;44.03;33.05;;;;;;;6.59;92.20;99729.03;5077462;28;20137;-79
2020/12/11 03:38:36;;;;;;;47.47;34.63;;;;;;;6.49;92.84;99733.41;5077887;28;20052;-78
2020/12/11 03:41:41;;;;;;;41.00;30.92;;;;;;;6.38;92.41;99726.28;5077663;28;20047;-78
2020/12/11 03:44:45;;;;;;;41.88;28.80;;;;;;;6.36;92.93;99708.72;5077496;28;20071;-78
2020/12/11 03:47:49;;;;;;;35.50;27.67;;;;;;;6.38;93.02;99720.09;5077693;28;20059;-78
2020/12/11 03:50:54;;;;;;;37.10;27.25;;;;;;;6.38;92.30;99704.09;5077197;28;20493;-78
2020/12/11 03:53:58;;;;;;;34.42;25.98;;;;;;;6.33;91.95;99707.13;5077266;28;20052;-79
2020/12/11 03:57:03;;;;;;;33.63;25.50;;;;;;;6.32;91.90;99709.94;5076756;28;20394;-79
2020/12/11 04:00:07;;;;;;;34.97;24.75;;;;;;;6.27;92.29;99702.28;5077452;28;20052;-80
2020/12/11 04:03:11;;;;;;;32.17;24.35;;;;;;;6.35;92.08;99709.66;5077078;28;20043;-79
2020/12/11 04:06:17;;;;;;;30.83;24.38;;;;;;;6.31;92.18;99713.56;5076964;28;20055;-79
2020/12/11 04:09:22;;;;;;;32.72;22.17;;;;;;;6.30;91.80;99698.53;5076646;28;20043;-78
2020/12/11 04:12:26;;;;;;;30.05;22.02;;;;;;;6.26;91.09;99699.75;5076681;28;20071;-80
2020/12/11 04:15:31;;;;;;;28.20;20.38;;;;;;;6.22;91.04;99698.31;5076599;28;20051;-80
2020/12/11 04:18:35;;;;;;;27.17;21.33;;;;;;;6.26;90.38;99705.94;5076878;28;20371;-80
2020/12/11 04:21:39;;;;;;;30.98;21.10;;;;;;;6.33;90.25;99711.63;5077033;28;20364;-80
2020/12/11 04:24:44;;;;;;;27.55;20.58;;;;;;;6.31;90.43;99711.75;5076950;28;20059;-79
2020/12/11 04:27:48;;;;;;;27.05;20.50;;;;;;;6.33;90.49;99708.94;5076519;28;20047;-80
2020/12/11 04:30:52;;;;;;;30.23;20.65;;;;;;;6.34;90.15;99703.50;5076203;28;20048;-79
2020/12/11 04:33:56;;;;;;;28.58;20.30;;;;;;;6.34;89.72;99697.34;5076412;28;20048;-81
2020/12/11 04:37:01;;;;;;;27.35;19.75;;;;;;;6.41;89.88;99709.19;5076771;28;20047;-81
2020/12/11 04:40:05;;;;;;;27.23;20.27;;;;;;;6.40;89.66;99707.47;5076414;28;20060;-81
2020/12/11 04:43:11;;;;;;;26.02;20.10;;;;;;;6.44;89.36;99709.75;5075533;28;20048;-80
2020/12/11 04:46:16;;;;;;;24.05;19.13;;;;;;;6.46;89.49;99701.66;5076345;28;20098;-80
2020/12/11 04:49:21;;;;;;;24.55;19.40;;;;;;;6.48;89.23;99694.38;5076306;28;20071;-80
2020/12/11 04:52:30;;;;;;;27.17;19.83;;;;;;;6.46;89.28;99696.34;5063767;28;20048;-81
2020/12/11 04:55:35;;;;;;;29.38;21.13;;;;;;;6.36;88.91;99690.06;5076125;28;20059;-79
2020/12/11 04:58:45;;;;;;;29.75;20.50;;;;;;;6.26;88.98;99681.97;5076434;28;20044;-80
2020/12/11 05:01:54;;;;;;;25.52;20.00;;;;;;;6.26;89.11;99683.78;5076082;28;20063;-80
2020/12/11 05:04:58;;;;;;;27.77;19.10;;;;;;;6.26;89.04;99681.09;5076331;28;20056;-80
2020/12/11 05:08:17;;;;;;;24.95;19.33;;;;;;;6.36;88.74;99682.06;5076231;28;20494;-80
2020/12/11 05:11:28;;;;;;;28.20;19.75;;;;;;;6.38;88.98;99683.63;5076110;28;20047;-80
2020/12/11 05:14:34;;;;;;;27.67;20.15;;;;;;;6.31;88.96;99671.78;5062887;28;20055;-80
2020/12/11 05:17:40;;;;;;;27.13;19.63;;;;;;;6.25;89.01;99679.41;5075662;28;20047;-80
2020/12/11 05:20:44;;;;;;;28.55;21.30;;;;;;;6.21;89.09;99681.47;5075746;28;20047;-80
2020/12/11 05:24:05;;;;;;;28.25;21.30;;;;;;;6.27;89.33;99686.28;5063286;28;20383;-80
2020/12/11 05:27:34;;;;;;;26.65;20.42;;;;;;;6.25;89.16;99682.06;5075616;28;20086;-81
2020/12/11 05:30:39;;;;;;;25.65;19.83;;;;;;;6.19;89.21;99678.09;5062946;28;20051;-79
2020/12/11 05:34:03;;;;;;;28.40;20.95;;;;;;;6.20;89.48;99685.09;5075003;28;20048;-80
2020/12/11 05:37:07;;;;;;;28.17;21.45;;;;;;;6.15;89.97;99675.78;5063151;28;20051;-80
2020/12/11 05:40:26;;;;;;;28.98;21.20;;;;;;;6.20;90.11;99677.09;5075084;28;20498;-80
2020/12/11 05:43:30;;;;;;;28.35;20.88;;;;;;;6.13;90.16;99667.91;5075197;28;20516;-80
2020/12/11 05:46:35;;;;;;;30.88;22.75;;;;;;;5.99;90.92;99670.84;5075172;28;20059;-80
2020/12/11 05:49:39;;;;;;;27.75;21.08;;;;;;;6.02;90.46;99669.75;5075034;28;20387;-81
2020/12/11 05:52:44;;;;;;;32.75;23.25;;;;;;;5.96;90.80;99654.25;5075276;28;20387;-81
2020/12/11 05:55:50;;;;;;;26.77;20.88;;;;;;;5.95;91.13;99672.03;5062355;28;20067;-81
2020/12/11 05:58:54;;;;;;;28.65;21.88;;;;;;;5.83;91.14;99679.16;5074876;28;20059;-81
2020/12/11 06:02:00;;;;;;;33.88;23.35;;;;;;;5.73;91.38;99672.88;5075053;28;20577;-79
2020/12/11 06:05:06;;;;;;;37.05;25.88;;;;;;;5.68;91.41;99660.88;5074760;28;20048;-82
2020/12/11 06:08:11;;;;;;;139.80;97.78;;;;;;;5.58;91.38;99649.28;5062385;28;20391;-80
2020/12/11 06:11:22;;;;;;;41.35;28.30;;;;;;;5.54;91.76;99661.97;5074590;28;20048;-79
2020/12/11 06:15:06;;;;;;;31.95;23.48;;;;;;;5.47;92.02;99665.25;5074162;28;20055;-80
2020/12/11 06:18:27;;;;;;;33.25;23.27;;;;;;;5.41;91.94;99666.56;5064471;28;20047;-80
2020/12/11 06:21:32;;;;;;;31.65;23.08;;;;;;;5.34;91.52;99672.47;5074252;28;20043;-79
2020/12/11 06:24:36;;;;;;;32.33;22.23;;;;;;;5.30;91.60;99676.34;5074520;28;20051;-78
2020/12/11 06:27:40;;;;;;;32.15;20.73;;;;;;;5.11;91.25;99668.94;5074206;28;20051;-78
2020/12/11 06:30:53;;;;;;;28.10;21.08;;;;;;;5.00;91.07;99667.09;5074655;28;20052;-78
2020/12/11 06:33:58;;;;;;;29.58;19.70;;;;;;;4.98;90.79;99682.31;5061487;28;20056;-78
2020/12/11 06:37:03;;;;;;;28.63;20.35;;;;;;;4.86;90.84;99671.75;5061451;28;20503;-79
2020/12/11 06:40:08;;;;;;;29.42;20.38;;;;;;;4.84;90.60;99679.00;5074257;28;20411;-79
2020/12/11 06:43:42;;;;;;;26.23;19.33;;;;;;;4.74;90.81;99683.31;5074028;28;20048;-78
2020/12/11 06:47:09;;;;;;;27.65;18.90;;;;;;;4.70;90.83;99688.00;5074256;28;20051;-78
2020/12/11 06:50:14;;;;;;;27.38;19.88;;;;;;;4.66;90.98;99688.34;5061492;28;20502;-79
2020/12/11 06:53:44;;;;;;;32.88;21.27;;;;;;;4.64;91.18;99684.94;5073710;28;20047;-79
2020/12/11 06:56:51;;;;;;;32.45;20.58;;;;;;;4.60;91.29;99681.66;5073463;28;20055;-77
2020/12/11 06:59:55;;;;;;;32.55;21.30;;;;;;;4.61;91.50;99686.03;5074013;28;20048;-78
2020/12/11 07:03:13;;;;;;;29.88;21.10;;;;;;;4.69;91.67;99702.22;5073679;28;20051;-77
2020/12/11 07:06:17;;;;;;;29.70;19.77;;;;;;;4.75;91.16;99701.78;5073501;28;20155;-77
2020/12/11 07:09:21;;;;;;;30.83;21.35;;;;;;;4.75;90.84;99701.78;5072274;28;20043;-78
2020/12/11 07:12:26;;;;;;;29.75;20.95;;;;;;;4.78;90.51;99684.75;5069845;28;20063;-77
2020/12/11 07:15:31;;;;;;;29.77;20.85;;;;;;;4.85;90.37;99692.16;5053121;28;20048;-77
2020/12/11 07:18:35;;;;;;;30.05;18.33;;;;;;;5.02;89.33;99693.56;5065456;28;20395;-77
2020/12/11 07:21:40;;;;;;;37.08;19.55;;;;;;;5.05;88.76;99685.34;5073822;28;20490;-77
2020/12/11 07:24:45;;;;;;;26.17;18.08;;;;;;;5.32;87.84;99683.25;5072707;28;20047;-78
2020/12/11 07:27:58;;;;;;;26.45;18.35;;;;;;;5.71;86.09;99689.94;5040851;28;20396;-77
2020/12/11 07:31:02;;;;;;;25.90;18.35;;;;;;;6.28;84.09;99684.47;5053062;28;20044;-78
2020/12/11 07:34:17;;;;;;;29.02;17.25;;;;;;;7.06;81.62;99679.75;5055421;28;20383;-77
2020/12/11 07:37:22;;;;;;;21.42;15.68;;;;;;;8.41;78.39;99692.84;5061235;28;20383;-76
2020/12/11 07:40:27;;;;;;;24.15;16.15;;;;;;;9.45;72.70;99683.16;5060689;28;20505;-78
2020/12/11 07:43:31;;;;;;;20.85;14.00;;;;;;;10.00;68.13;99680.59;5073120;28;20056;-78
2020/12/11 07:46:40;;;;;;;21.88;13.52;;;;;;;10.22;65.87;99670.34;5058354;28;20494;-79
2020/12/11 07:49:46;;;;;;;22.27;15.02;;;;;;;11.03;63.06;99673.91;5053075;28;20403;-81
2020/12/11 07:52:52;;;;;;;22.48;14.18;;;;;;;11.92;60.55;99669.19;5070197;28;20055;-83
2020/12/11 07:55:57;;;;;;;24.55;13.52;;;;;;;12.91;56.77;99668.38;5060447;28;20063;-82
2020/12/11 07:59:12;;;;;;;16.95;12.48;;;;;;;13.66;53.74;99669.91;5072458;28;20082;-82
2020/12/11 08:02:17;;;;;;;14.50;10.30;;;;;;;14.16;52.08;99665.06;5056002;28;20055;-82
2020/12/11 08:05:24;;;;;;;15.20;10.32;;;;;;;15.08;50.00;99658.00;5048979;28;20056;-82
2020/12/11 08:08:28;;;;;;;15.10;11.00;;;;;;;15.63;47.17;99653.16;5070108;28;20048;-82
2020/12/11 08:11:32;;;;;;;14.40;10.50;;;;;;;16.62;47.46;99648.13;5072610;28;20047;-81
2020/12/11 08:14:40;;;;;;;13.93;10.98;;;;;;;16.95;45.93;99645.78;5073092;28;20075;-81
2020/12/11 08:17:44;;;;;;;15.27;10.80;;;;;;;17.41;44.95;99646.22;5062259;28;20422;-81
2020/12/11 08:20:57;;;;;;;17.65;11.77;;;;;;;17.49;44.11;99641.50;5076302;28;20494;-81
2020/12/11 08:24:02;;;;;;;18.25;13.88;;;;;;;16.51;44.45;99639.63;5063723;28;20048;-81
2020/12/11 08:27:20;;;;;;;18.15;12.60;;;;;;;14.99;48.18;99633.72;5076332;28;20055;-81
2020/12/11 08:30:34;;;;;;;15.65;12.52;;;;;;;13.50;51.74;99641.13;5076180;28;20047;-84
2020/12/11 08:33:38;;;;;;;14.45;12.13;;;;;;;13.89;51.98;99646.59;5076036;28;20059;-81
2020/12/11 08:36:47;;;;;;;15.05;11.02;;;;;;;15.17;48.09;99633.44;5075930;28;20047;-81
2020/12/11 08:40:05;;;;;;;15.27;11.85;;;;;;;15.82;46.04;99633.69;5075980;28;20048;-82
2020/12/11 08:49:53;;;;;;;13.13;9.67;;;;;;;22.47;32.47;99629.81;5063345;28;20047;-81
2020/12/11 08:53:01;;;;;;;14.45;10.50;;;;;;;22.52;31.76;99631.84;5063556;28;20052;-81
2020/12/11 08:56:07;;;;;;;11.63;9.02;;;;;;;23.19;30.79;99631.59;5063200;28;20051;-81
2020/12/11 08:59:12;;;;;;;11.93;10.05;;;;;;;23.98;29.56;99640.44;5063472;28;20067;-80
2020/12/11 09:02:16;;;;;;;13.77;9.30;;;;;;;24.94;28.56;99637.91;5075945;28;20044;-81
2020/12/11 09:05:24;;;;;;;11.18;9.70;;;;;;;24.29;29.40;99646.44;5075552;28;20073;-82
2020/12/11 09:08:28;;;;;;;12.82;10.27;;;;;;;24.11;29.06;99638.31;5075586;28;20052;-81
2020/12/11 09:11:32;;;;;;;12.15;10.43;;;;;;;20.02;35.45;99643.63;5075596;28;20119;-80
2020/12/11 09:14:37;;;;;;;12.32;10.60;;;;;;;17.18;42.23;99654.59;5063307;28;20040;-81
2020/12/11 09:17:43;;;;;;;12.07;10.20;;;;;;;15.95;45.47;99660.94;5075186;28;20052;-81
2020/12/11 09:20:47;;;;;;;11.20;9.50;;;;;;;15.47;47.64;99664.13;5063123;28;20048;-81
2020/12/11 09:23:51;;;;;;;13.25;9.40;;;;;;;14.93;48.70;99672.31;5074973;28;20502;-80
2020/12/11 09:26:57;;;;;;;12.82;10.60;;;;;;;13.71;51.40;99675.63;5061957;28;20067;-80
2020/12/11 09:30:11;;;;;;;14.50;10.07;;;;;;;13.73;51.85;99662.00;5074818;28;20406;-80
2020/12/11 09:33:24;;;;;;;11.95;9.95;;;;;;;13.95;51.58;99672.88;5074956;28;20064;-80
2020/12/11 09:36:28;;;;;;;11.25;10.05;;;;;;;13.50;52.37;99673.47;5062513;28;20073;-80
2020/12/11 09:39:32;;;;;;;11.65;9.68;;;;;;;13.65;52.93;99677.16;5074800;28;20067;-78
2020/12/11 09:49:18;;;;;;;13.13;11.32;;;;;;;12.42;56.88;99670.09;5074370;28;20407;-80
2020/12/11 09:55:44;;;;;;;17.45;11.85;;;;;;;12.20;58.21;99666.13;5074441;28;20059;-81
2020/12/11 09:58:50;;;;;;;;;;;;;;;12.22;58.24;99668.69;5074484;28;20060;-82
2020/12/11 10:02:10;;;;;;;15.18;12.35;;;;;;;12.06;59.49;99657.84;5074134;28;19916;-81
2020/12/11 10:05:15;;;;;;;15.13;12.70;;;;;;;11.62;60.59;99646.31;5061975;28;20052;-81
2020/12/11 10:08:18;;;;;;;14.40;12.50;;;;;;;11.13;61.75;99654.00;5061842;28;20081;-81
2020/12/11 10:11:23;;;;;;;17.02;14.05;;;;;;;11.27;62.34;99657.97;5074129;28;20510;-80
2020/12/11 10:17:35;;;;;;;17.90;12.93;;;;;;;10.66;63.38;99655.25;5073705;28;20051;-83
2020/12/11 10:20:41;;;;;;;17.20;12.93;;;;;;;10.13;64.79;99643.56;5073995;28;20072;-81
2020/12/11 10:23:45;;;;;;;15.25;11.95;;;;;;;9.92;66.34;99648.31;5073738;28;20498;-82
2020/12/11 10:26:50;;;;;;;18.08;13.73;;;;;;;9.97;66.11;99633.47;5073869;28;20063;-82
2020/12/11 10:29:54;;;;;;;16.67;12.98;;;;;;;9.79;66.19;99640.59;5073627;28;20055;-82
2020/12/11 10:32:58;;;;;;;21.10;14.23;;;;;;;10.04;66.46;99647.97;5074157;28;20052;-82
2020/12/11 10:36:03;;;;;;;16.77;12.93;;;;;;;10.00;66.99;99653.78;5073481;28;20055;-80
2020/12/11 10:39:08;;;;;;;16.23;13.75;;;;;;;10.16;67.33;99648.63;5073636;28;20043;-78
2020/12/11 10:42:12;;;;;;;15.07;13.48;;;;;;;10.32;66.81;99636.25;5049795;28;20055;-82
2020/12/11 10:45:17;;;;;;;17.02;13.80;;;;;;;10.30;66.36;99619.47;5073623;28;20055;-81
2020/12/11 10:48:21;;;;;;;15.68;12.52;;;;;;;10.37;65.52;99608.97;5073522;28;20068;-82
2020/12/11 10:51:25;;;;;;;16.90;13.38;;;;;;;10.53;64.83;99609.16;5073529;28;20063;-81
2020/12/11 10:54:30;;;;;;;16.13;13.27;;;;;;;10.53;63.88;99598.44;5073662;28;20051;-80
2020/12/11 10:57:34;;;;;;;15.13;12.82;;;;;;;10.48;64.60;99606.09;5073346;28;20510;-82
2020/12/11 11:00:40;;;;;;;18.67;13.00;;;;;;;10.47;64.25;99590.97;5072790;28;20119;-81
2020/12/11 11:03:44;;;;;;;17.77;14.07;;;;;;;10.48;65.33;99584.63;5072679;28;20530;-82
2020/12/11 11:07:00;;;;;;;18.63;12.95;;;;;;;10.36;65.66;99588.53;5073170;28;20052;-80
2020/12/11 11:30:06;;;;;;;16.15;13.18;;;;;;;10.99;64.28;99551.66;4975977;28;20114;-82
2020/12/11 11:33:10;;;;;;;16.20;12.60;;;;;;;11.07;63.88;99554.41;4990711;28;20174;-82
2020/12/11 11:36:14;;;;;;;16.02;13.05;;;;;;;11.21;64.44;99558.38;4972317;28;20058;-81
2020/12/11 11:39:19;;;;;;;18.40;13.13;;;;;;;11.10;64.60;99548.72;4983293;28;20562;-81
2020/12/11 11:42:24;;;;;;;16.25;13.43;;;;;;;11.13;63.97;99551.94;4972475;28;20150;-80
2020/12/11 11:45:33;;;;;;;17.15;14.00;;;;;;;11.05;63.77;99549.22;4972599;28;20201;-82
2020/12/11 11:48:40;;;;;;;16.08;13.80;;;;;;;10.89;64.02;99546.38;4992471;28;20049;-82
2020/12/11 11:51:56;;;;;;;16.48;14.05;;;;;;;10.73;65.06;99548.97;4993262;28;20244;-78
2020/12/11 11:55:01;;;;;;;17.58;14.02;;;;;;;10.64;65.15;99541.81;4976132;28;20536;-80
2020/12/11 11:58:05;;;;;;;18.55;15.52;;;;;;;10.49;65.78;99551.44;4964593;28;20062;-81
2020/12/11 12:01:09;;;;;;;19.40;15.20;;;;;;;10.44;65.70;99540.31;5055675;28;20052;-82
2020/12/11 12:04:14;;;;;;;17.73;14.43;;;;;;;10.56;65.68;99547.13;5044316;28;20044;-81
2020/12/11 12:07:18;;;;;;;16.77;14.20;;;;;;;10.67;66.30;99538.84;5058423;28;20059;-82
2020/12/11 12:10:22;;;;;;;21.83;15.40;;;;;;;10.53;66.53;99538.53;5056657;28;20052;-82
2020/12/11 12:13:27;;;;;;;18.00;15.20;;;;;;;10.37;67.65;99533.84;5056364;28;20048;-81
2020/12/11 12:16:33;;;;;;;19.67;15.05;;;;;;;10.37;67.76;99536.53;5060585;28;20048;-82
2020/12/11 12:19:46;;;;;;;18.83;14.85;;;;;;;10.22;68.87;99524.69;5056328;28;20048;-82
2020/12/11 12:29:20;;;;;;;19.05;15.77;;;;;;;10.13;68.97;99520.22;5059382;28;20387;-82
2020/12/11 12:32:27;;;;;;;19.23;15.68;;;;;;;10.18;69.14;99523.28;5046121;28;20052;-82
2020/12/11 12:39:28;;;;;;;21.98;17.17;;;;;;;10.13;70.06;99504.97;5055673;28;20056;-82
2020/12/11 12:45:47;;;;;;;29.95;22.92;;;;;;;9.74;72.00;99499.00;5055555;28;20056;-80
2020/12/11 12:48:51;;;;;;;28.23;22.65;;;;;;;9.71;73.15;99507.34;5046133;28;20052;-81
2020/12/11 12:51:56;;;;;;;31.92;25.00;;;;;;;9.53;73.50;99497.59;5026687;28;20055;-81
2020/12/11 12:55:01;;;;;;;33.10;24.08;;;;;;;9.45;73.51;99486.75;5075686;28;20052;-81
2020/12/11 12:58:05;;;;;;;30.60;24.00;;;;;;;9.33;73.80;99496.84;5043005;28;20068;-81
2020/12/11 13:01:24;;;;;;;31.48;24.02;;;;;;;9.45;74.05;99494.81;5055451;28;20048;-82
2020/12/11 13:07:41;;;;;;;29.65;25.10;;;;;;;9.37;75.06;99487.50;5046932;28;20048;-82
2020/12/11 13:10:46;;;;;;;37.10;25.10;;;;;;;9.32;75.21;99492.47;5048979;28;20056;-83
2020/12/11 13:13:50;;;;;;;30.45;25.00;;;;;;;9.16;75.86;99486.88;5062009;28;20044;-82
2020/12/11 13:16:55;;;;;;;34.85;27.38;;;;;;;9.06;75.74;99478.06;5055175;28;20112;-81
2020/12/11 13:20:00;;;;;;;33.10;25.45;;;;;;;8.89;76.27;99478.78;5055299;28;20052;-82
2020/12/11 13:26:43;;;;;;;28.00;23.70;;;;;;;8.97;76.49;99481.59;5060674;28;20052;-82
2020/12/11 13:29:47;;;;;;;32.50;23.52;;;;;;;8.86;75.61;99482.59;5051751;28;20055;-81
2020/12/11 13:32:52;;;;;;;30.52;25.02;;;;;;;8.79;75.98;99480.69;5070747;28;20402;-82
2020/12/11 13:35:56;;;;;;;29.05;23.48;;;;;;;8.76;76.16;99467.59;5070831;28;20059;-81
2020/12/11 13:39:01;;;;;;;30.70;24.90;;;;;;;8.74;76.61;99453.50;5062398;28;20068;-81
2020/12/11 13:42:06;;;;;;;29.70;22.13;;;;;;;8.75;76.06;99465.88;5067690;28;20052;-81
2020/12/11 13:45:11;;;;;;;35.88;25.50;;;;;;;8.70;75.80;99460.13;5054601;28;20052;-81
2020/12/11 13:48:15;;;;;;;33.85;23.05;;;;;;;8.53;78.81;99453.69;5042261;28;20399;-80
2020/12/11 13:51:22;;;;;;;34.75;23.40;;;;;;;8.58;80.24;99462.13;5062909;28;20071;-83
2020/12/11 13:54:27;;;;;;;32.42;23.10;;;;;;;8.58;80.85;99453.25;5065011;28;20051;-82
2020/12/11 13:57:32;;;;;;;31.80;23.92;;;;;;;8.26;81.55;99434.84;5073345;28;20056;-83
2020/12/11 14:00:36;;;;;;;32.60;25.50;;;;;;;8.12;82.76;99441.44;5073846;28;20479;-82
2020/12/11 14:03:41;;;;;;;30.88;23.67;;;;;;;8.13;82.91;99445.81;5074354;28;20063;-80
2020/12/11 14:06:45;;;;;;;36.80;25.27;;;;;;;8.02;84.64;99442.47;5074372;28;20506;-79
2020/12/11 14:09:50;;;;;;;33.55;25.40;;;;;;;8.11;85.54;99437.09;5071529;28;20051;-82
2020/12/11 14:12:54;;;;;;;33.42;26.10;;;;;;;8.13;85.65;99431.59;5074172;28;20507;-81
2020/12/11 14:15:58;;;;;;;34.92;26.67;;;;;;;8.06;85.07;99420.66;5071073;28;20522;-80
2020/12/11 14:25:52;;;;;;;31.70;28.20;;;;;;;7.85;85.74;99407.44;4993639;28;20053;-81
2020/12/11 14:28:57;;;;;;;36.20;27.40;;;;;;;7.86;85.83;99409.13;4983490;28;20151;-82
2020/12/11 14:32:08;;;;;;;35.70;28.33;;;;;;;7.84;85.92;99413.78;4983166;28;20065;-82
2020/12/11 14:35:12;;;;;;;36.05;28.42;;;;;;;7.81;86.20;99406.03;4992210;28;20413;-82
2020/12/11 14:41:47;;;;;;;32.80;26.17;;;;;;;7.80;85.71;99409.66;4989302;28;20053;-82
2020/12/11 14:44:51;;;;;;;34.60;26.50;;;;;;;7.81;85.56;99421.22;4992236;28;20146;-81
2020/12/11 14:47:55;;;;;;;34.78;28.73;;;;;;;7.84;86.12;99412.91;4991847;28;20050;-81
2020/12/11 14:51:00;;;;;;;37.35;27.75;;;;;;;7.87;86.22;99415.31;4982187;28;20066;-81
2020/12/11 14:54:05;;;;;;;33.30;27.83;;;;;;;7.86;86.21;99408.28;5005998;28;20061;-81
2020/12/11 14:57:10;;;;;;;37.55;30.80;;;;;;;7.87;86.71;99409.97;5009456;28;20180;-82
2020/12/11 15:00:14;;;;;;;36.63;29.00;;;;;;;7.82;86.72;99409.56;5008470;28;20051;-81
2020/12/11 15:03:19;;;;;;;37.33;27.92;;;;;;;7.84;86.86;99397.75;5071813;28;20055;-81
2020/12/11 15:06:24;;;;;;;36.30;30.05;;;;;;;7.77;86.65;99391.28;5066980;28;20410;-80
2020/12/11 15:09:28;;;;;;;45.97;31.17;;;;;;;7.77;86.60;99387.75;5073486;28;20048;-82
2020/12/11 15:12:33;;;;;;;39.80;31.20;;;;;;;7.75;86.78;99387.06;5042603;28;20056;-81
2020/12/11 15:15:37;;;;;;;39.55;31.05;;;;;;;7.61;87.13;99385.63;5070937;28;20044;-81
2020/12/11 15:18:41;;;;;;;42.60;31.25;;;;;;;7.59;87.32;99379.59;5053135;28;20052;-81
2020/12/11 15:21:46;;;;;;;45.05;34.38;;;;;;;7.57;87.27;99391.41;5052980;28;20068;-80
2020/12/11 15:24:50;;;;;;;45.22;34.70;;;;;;;7.55;87.83;99388.03;5053242;28;20056;-81
2020/12/11 15:27:54;;;;;;;43.97;34.83;;;;;;;7.52;87.85;99383.81;5075366;28;20498;-80
2020/12/11 15:30:59;;;;;;;43.50;37.22;;;;;;;7.46;88.14;99375.50;5077260;28;20055;-81
2020/12/11 15:34:03;;;;;;;51.75;37.63;;;;;;;7.46;88.18;99367.47;5046543;28;20048;-81
2020/12/11 15:37:08;;;;;;;51.03;38.72;;;;;;;7.44;88.34;99364.13;5058039;28;20075;-82